createdAt,value
2023-01-17T00:02:11.588Z,1.40
2023-01-17T00:06:12.176Z,1.30
2023-01-17T00:09:54.017Z,1.40
2023-01-17T00:13:35.741Z,1.40
2023-01-17T00:17:17.548Z,1.40
2023-01-17T00:21:18.384Z,1.40
2023-01-17T00:25:18.815Z,1.30
2023-01-17T00:29:00.494Z,1.20
2023-01-17T00:32:42.258Z,1.20
2023-01-17T00:36:24.292Z,1.20
2023-01-17T00:40:06.835Z,1.20
2023-01-17T00:44:07.202Z,1.20
2023-01-17T00:48:07.587Z,1.10
2023-01-17T00:52:08.035Z,1.00
2023-01-17T00:56:08.788Z,0.90
2023-01-17T01:00:09.561Z,0.90
2023-01-17T01:04:10.268Z,0.80
2023-01-17T01:08:10.740Z,0.70
2023-01-17T01:12:10.997Z,0.80
2023-01-17T01:16:11.389Z,0.70
2023-01-17T01:20:12.116Z,0.70
2023-01-17T01:24:12.395Z,0.60
2023-01-17T01:28:22.708Z,0.50
2023-01-17T01:32:23.163Z,0.50
2023-01-17T01:36:07.817Z,0.50
2023-01-17T01:39:49.689Z,0.50
2023-01-17T01:43:47.888Z,0.40
2023-01-17T01:47:35.819Z,0.40
2023-01-17T01:51:22.053Z,0.30
2023-01-17T01:55:16.597Z,0.40
2023-01-17T01:58:59.911Z,0.40
2023-01-17T02:02:43.333Z,0.40
2023-01-17T02:06:27.782Z,0.40
2023-01-17T02:10:10.125Z,0.40
2023-01-17T02:13:51.881Z,0.40
2023-01-17T02:17:51.617Z,0.40
2023-01-17T02:21:59.111Z,0.40
2023-01-17T02:26:03.512Z,0.40
2023-01-17T02:30:03.732Z,0.40
2023-01-17T02:34:02.559Z,0.50
2023-01-17T02:38:12.982Z,0.50
2023-01-17T02:42:00.175Z,0.50
2023-01-17T02:45:42.236Z,0.50
2023-01-17T02:49:30.288Z,0.50
2023-01-17T02:53:20.559Z,0.40
2023-01-17T02:57:36.788Z,0.50
2023-01-17T03:01:43.057Z,0.40
2023-01-17T03:05:52.924Z,0.40
2023-01-17T03:09:35.264Z,0.40
2023-01-17T03:13:17.135Z,0.40
2023-01-17T03:16:59.068Z,0.40
2023-01-17T03:20:40.964Z,0.40
2023-01-17T03:24:22.674Z,0.40
2023-01-17T03:28:04.675Z,0.40
2023-01-17T03:31:46.706Z,0.40
2023-01-17T03:35:28.532Z,0.40
2023-01-17T03:39:10.233Z,0.40
2023-01-17T03:42:52.008Z,0.40
2023-01-17T03:46:33.797Z,0.50
2023-01-17T03:50:15.691Z,0.50
2023-01-17T03:53:57.586Z,0.50
2023-01-17T03:57:39.599Z,0.50
2023-01-17T04:01:21.355Z,0.40
2023-01-17T04:05:03.398Z,0.50
2023-01-17T04:08:45.111Z,0.40
2023-01-17T04:12:26.893Z,0.40
2023-01-17T04:16:15.394Z,0.40
2023-01-17T04:19:57.165Z,0.40
2023-01-17T04:23:38.996Z,0.40
2023-01-17T04:27:20.794Z,0.40
2023-01-17T04:31:02.545Z,0.40
2023-01-17T04:34:44.275Z,0.40
2023-01-17T04:38:26.040Z,0.40
2023-01-17T04:42:07.767Z,0.30
2023-01-17T04:45:55.209Z,0.30
2023-01-17T04:49:36.930Z,0.30
2023-01-17T04:53:18.649Z,0.30
2023-01-17T04:57:00.365Z,0.30
2023-01-17T05:00:42.068Z,0.30
2023-01-17T05:04:23.896Z,0.30
2023-01-17T05:08:05.587Z,0.30
2023-01-17T05:11:47.295Z,0.20
2023-01-17T05:15:29.593Z,0.20
2023-01-17T05:19:11.352Z,0.30
2023-01-17T05:22:57.559Z,0.30
2023-01-17T05:26:40.698Z,0.30
2023-01-17T05:30:23.004Z,0.30
2023-01-17T05:34:04.858Z,0.30
2023-01-17T05:37:49.618Z,0.30
2023-01-17T05:41:31.310Z,0.30
2023-01-17T05:45:19.453Z,0.30
2023-01-17T05:49:01.207Z,0.30
2023-01-17T05:52:53.129Z,0.20
2023-01-17T05:56:34.984Z,0.30
2023-01-17T06:00:18.035Z,0.20
2023-01-17T06:03:59.770Z,0.20
2023-01-17T06:07:44.723Z,0.20
2023-01-17T06:11:26.845Z,0.20
2023-01-17T06:15:09.550Z,0.20
2023-01-17T06:18:51.308Z,0.20
2023-01-17T06:22:33.737Z,0.20
2023-01-17T06:26:15.491Z,0.20
2023-01-17T06:29:57.209Z,0.20
2023-01-17T06:33:38.933Z,0.20
2023-01-17T06:37:20.626Z,0.20
2023-01-17T06:41:05.799Z,0.20
2023-01-17T06:44:47.588Z,0.20
2023-01-17T06:48:29.362Z,0.20
2023-01-17T06:52:11.110Z,0.20
2023-01-17T06:55:56.598Z,0.20
2023-01-17T06:59:38.443Z,0.20
2023-01-17T07:03:22.699Z,0.20
2023-01-17T07:07:04.483Z,0.30
2023-01-17T07:10:48.055Z,0.20
2023-01-17T07:14:30.376Z,0.20
2023-01-17T07:18:12.146Z,0.20
2023-01-17T07:21:54.491Z,0.20
2023-01-17T07:25:36.240Z,0.10
2023-01-17T07:29:18.755Z,0.20
2023-01-17T07:33:01.403Z,0.20
2023-01-17T07:36:43.136Z,0.20
2023-01-17T07:40:25.436Z,0.10
2023-01-17T07:44:14.008Z,0.10
2023-01-17T07:47:58.816Z,0.00
2023-01-17T07:51:40.530Z,0.00
2023-01-17T07:55:22.727Z,0.00
2023-01-17T07:59:04.449Z,0.00
2023-01-17T08:02:46.265Z,0.00
2023-01-17T08:06:29.235Z,0.00
2023-01-17T08:10:13.292Z,0.00
2023-01-17T08:13:59.267Z,0.00
2023-01-17T08:17:49.342Z,0.10
2023-01-17T08:21:31.165Z,0.10
2023-01-17T08:25:13.048Z,0.10
2023-01-17T08:28:56.853Z,0.20
2023-01-17T08:32:41.650Z,0.20
2023-01-17T08:36:25.720Z,0.20
2023-01-17T08:40:08.773Z,0.20
2023-01-17T08:43:51.785Z,0.10
2023-01-17T08:47:34.815Z,0.20
2023-01-17T08:51:16.595Z,0.20
2023-01-17T08:54:58.518Z,0.20
2023-01-17T08:58:41.413Z,0.30
2023-01-17T09:02:24.711Z,0.30
2023-01-17T09:06:09.486Z,0.40
2023-01-17T09:09:52.658Z,0.40
2023-01-17T09:13:34.891Z,0.40
2023-01-17T09:17:16.713Z,0.50
2023-01-17T09:21:01.619Z,0.40
2023-01-17T09:24:43.374Z,0.40
2023-01-17T09:28:26.496Z,0.40
2023-01-17T09:32:08.264Z,0.40
2023-01-17T09:35:50.207Z,0.40
2023-01-17T09:39:31.941Z,0.40
2023-01-17T09:43:40.743Z,0.50
2023-01-17T09:47:34.514Z,0.50
2023-01-17T09:51:20.383Z,0.60
2023-01-17T09:55:02.682Z,0.70
2023-01-17T09:58:52.555Z,0.70
2023-01-17T10:03:01.995Z,0.70
2023-01-17T10:07:02.834Z,0.80
2023-01-17T10:10:55.119Z,0.90
2023-01-17T10:14:36.814Z,1.00
2023-01-17T10:18:30.434Z,1.10
2023-01-17T10:22:42.962Z,1.10
2023-01-17T10:26:26.052Z,1.20
2023-01-17T10:30:22.877Z,1.20
2023-01-17T10:34:13.458Z,1.30
2023-01-17T10:37:58.252Z,1.30
2023-01-17T10:41:46.333Z,1.40
2023-01-17T10:45:29.246Z,1.40
2023-01-17T10:49:21.218Z,1.40
2023-01-17T10:53:14.689Z,1.40
2023-01-17T10:57:05.185Z,1.50
2023-01-17T11:00:55.231Z,1.50
2023-01-17T11:04:42.122Z,1.50
2023-01-17T11:08:23.901Z,1.50
2023-01-17T11:12:06.134Z,1.50
2023-01-17T11:15:50.545Z,1.60
2023-01-17T11:19:36.282Z,1.60
2023-01-17T11:23:21.689Z,1.60
2023-01-17T11:27:08.278Z,1.60
2023-01-17T11:31:03.667Z,1.60
2023-01-17T11:35:04.769Z,1.60
2023-01-17T11:39:18.215Z,1.60
2023-01-17T11:43:18.676Z,1.70
2023-01-17T11:47:12.555Z,1.70
2023-01-17T11:50:58.706Z,1.70
2023-01-17T11:54:42.411Z,1.70
2023-01-17T11:58:26.617Z,1.70
2023-01-17T12:02:31.726Z,1.70
2023-01-17T12:06:26.792Z,1.70
2023-01-17T12:10:27.974Z,1.70
2023-01-17T12:14:26.109Z,1.70
2023-01-17T12:18:31.251Z,1.70
2023-01-17T12:22:40.832Z,1.70
2023-01-17T12:26:34.865Z,1.70
2023-01-17T12:30:45.006Z,1.70
2023-01-17T12:34:35.930Z,1.70
2023-01-17T12:38:32.534Z,1.70
2023-01-17T12:42:24.056Z,1.70
2023-01-17T12:46:31.021Z,1.70
2023-01-17T12:50:45.103Z,1.70
2023-01-17T12:54:33.474Z,1.70
2023-01-17T12:58:20.889Z,1.70
2023-01-17T13:02:32.443Z,1.70
2023-01-17T13:06:29.057Z,1.70
2023-01-17T13:10:39.694Z,1.80
2023-01-17T13:14:21.386Z,1.80
2023-01-17T13:18:06.509Z,1.90
2023-01-17T13:21:50.526Z,1.90
2023-01-17T13:25:45.752Z,2.00
2023-01-17T13:29:42.469Z,2.00
2023-01-17T13:33:26.960Z,2.00
2023-01-17T13:37:36.838Z,2.00
2023-01-17T13:41:45.640Z,2.00
2023-01-17T13:45:38.098Z,2.00
2023-01-17T13:49:38.677Z,2.00
2023-01-17T13:53:35.434Z,2.00
2023-01-17T13:57:46.170Z,2.00
2023-01-17T14:01:38.773Z,2.00
2023-01-17T14:05:29.853Z,2.00
2023-01-17T14:09:14.565Z,1.90
2023-01-17T14:12:56.829Z,1.90
2023-01-17T14:16:39.608Z,1.90
2023-01-17T14:20:29.365Z,1.90
2023-01-17T14:24:11.110Z,1.90
2023-01-17T14:27:56.869Z,1.90
2023-01-17T14:31:38.733Z,1.90
2023-01-17T14:35:22.861Z,1.90
2023-01-17T14:39:20.161Z,1.90
2023-01-17T14:43:06.923Z,1.90
2023-01-17T14:46:49.288Z,1.90
2023-01-17T14:50:38.108Z,1.90
2023-01-17T14:54:22.197Z,1.90
2023-01-17T14:58:04.652Z,1.90
2023-01-17T15:02:07.529Z,1.90
2023-01-17T15:05:52.599Z,1.90
2023-01-17T15:09:37.773Z,1.90
2023-01-17T15:13:35.478Z,1.80
2023-01-17T15:17:25.101Z,1.80
2023-01-17T15:21:11.171Z,1.80
2023-01-17T15:24:53.596Z,1.80
2023-01-17T15:28:35.862Z,1.80
2023-01-17T15:32:23.965Z,1.80
2023-01-17T15:36:14.385Z,1.80
2023-01-17T15:40:18.991Z,1.80
2023-01-17T15:44:01.587Z,1.80
2023-01-17T15:47:43.446Z,1.80
2023-01-17T15:51:38.426Z,1.80
2023-01-17T15:55:29.182Z,1.70
2023-01-17T15:59:50.767Z,1.70
2023-01-17T16:03:32.534Z,1.60
2023-01-17T16:07:22.777Z,1.60
2023-01-17T16:11:06.383Z,1.60
2023-01-17T16:15:02.789Z,1.50
2023-01-17T16:18:57.547Z,1.50
2023-01-17T16:22:39.305Z,1.40
2023-01-17T16:26:21.447Z,1.40
2023-01-17T16:30:03.458Z,1.30
2023-01-17T16:33:46.166Z,1.30
2023-01-17T16:37:27.958Z,1.20
2023-01-17T16:41:09.732Z,1.20
2023-01-17T16:44:51.450Z,1.20
2023-01-17T16:48:33.249Z,1.20
2023-01-17T16:52:15.001Z,1.20
2023-01-17T16:55:59.580Z,1.10
2023-01-17T16:59:50.655Z,1.10
2023-01-17T17:03:32.783Z,1.00
2023-01-17T17:07:14.629Z,1.00
2023-01-17T17:11:13.047Z,1.00
2023-01-17T17:14:55.012Z,0.90
2023-01-17T17:18:36.784Z,0.90
2023-01-17T17:22:18.738Z,0.90
2023-01-17T17:26:00.779Z,0.90
2023-01-17T17:29:42.515Z,0.90
2023-01-17T17:33:24.248Z,0.80
2023-01-17T17:37:05.984Z,0.80
2023-01-17T17:40:47.662Z,0.80
2023-01-17T17:44:29.412Z,0.80
2023-01-17T17:48:11.108Z,0.80
2023-01-17T17:51:52.827Z,0.70
2023-01-17T17:55:35.936Z,0.70
2023-01-17T17:59:20.951Z,0.70
2023-01-17T18:03:02.650Z,0.70
2023-01-17T18:06:44.604Z,0.70
2023-01-17T18:10:26.897Z,0.70
2023-01-17T18:14:12.452Z,0.70
2023-01-17T18:17:56.148Z,0.60
2023-01-17T18:21:39.199Z,0.60
2023-01-17T18:25:20.949Z,0.60
2023-01-17T18:29:04.153Z,0.60
2023-01-17T18:32:49.862Z,0.60
2023-01-17T18:36:31.819Z,0.60
2023-01-17T18:40:13.746Z,0.60
2023-01-17T18:43:58.645Z,0.50
2023-01-17T18:47:40.350Z,0.50
2023-01-17T18:51:22.155Z,0.60
2023-01-17T18:55:04.618Z,0.50
2023-01-17T18:58:48.082Z,0.50
2023-01-17T19:02:29.944Z,0.50
2023-01-17T19:06:16.911Z,0.50
2023-01-17T19:09:58.595Z,0.50
2023-01-17T19:13:42.155Z,0.50
2023-01-17T19:17:24.008Z,0.50
2023-01-17T19:21:15.461Z,0.50
2023-01-17T19:24:57.162Z,0.50
2023-01-17T19:28:43.911Z,0.40
2023-01-17T19:32:25.669Z,0.40
2023-01-17T19:36:09.243Z,0.40
2023-01-17T19:39:51.131Z,0.40
2023-01-17T19:43:33.300Z,0.40
2023-01-17T19:47:15.079Z,0.30
2023-01-17T19:51:12.474Z,0.30
2023-01-17T19:54:54.179Z,0.30
2023-01-17T19:58:36.503Z,0.30
2023-01-17T20:02:18.891Z,0.40
2023-01-17T20:06:00.976Z,0.40
2023-01-17T20:09:42.695Z,0.40
2023-01-17T20:13:25.311Z,0.40
2023-01-17T20:17:07.047Z,0.40
2023-01-17T20:20:56.943Z,0.40
2023-01-17T20:24:39.392Z,0.40
2023-01-17T20:28:21.153Z,0.40
2023-01-17T20:32:02.966Z,0.40
2023-01-17T20:35:45.043Z,0.50
2023-01-17T20:39:26.930Z,0.50
2023-01-17T20:43:10.011Z,0.60
2023-01-17T20:46:51.727Z,0.60
2023-01-17T20:50:36.769Z,0.60
2023-01-17T20:54:19.250Z,0.60
2023-01-17T20:58:00.971Z,0.60
2023-01-17T21:01:43.885Z,0.70
2023-01-17T21:05:25.776Z,0.70
2023-01-17T21:09:10.734Z,0.70
2023-01-17T21:12:52.446Z,0.70
2023-01-17T21:16:35.272Z,0.70
2023-01-17T21:20:17.198Z,0.80
2023-01-17T21:23:59.440Z,0.70
2023-01-17T21:27:41.196Z,0.80
2023-01-17T21:31:25.207Z,0.70
2023-01-17T21:35:07.686Z,0.70
2023-01-17T21:38:56.783Z,0.70
2023-01-17T21:42:38.509Z,0.60
2023-01-17T21:46:20.325Z,0.60
2023-01-17T21:50:02.147Z,0.50
2023-01-17T21:53:43.963Z,0.40
2023-01-17T21:58:00.981Z,0.40
2023-01-17T22:01:42.800Z,0.40
2023-01-17T22:05:24.620Z,0.40
2023-01-17T22:09:07.255Z,0.40
2023-01-17T22:12:52.187Z,0.30
2023-01-17T22:16:33.951Z,0.40
2023-01-17T22:20:16.056Z,0.40
2023-01-17T22:23:59.682Z,0.40
2023-01-17T22:27:41.403Z,0.40
2023-01-17T22:31:26.152Z,0.50
2023-01-17T22:35:08.426Z,0.60
2023-01-17T22:38:50.761Z,0.60
2023-01-17T22:42:34.349Z,0.70
2023-01-17T22:46:19.024Z,0.80
2023-01-17T22:50:00.849Z,0.80
2023-01-17T22:53:48.402Z,0.80
2023-01-17T22:57:32.864Z,0.80
2023-01-17T23:01:18.107Z,0.70
2023-01-17T23:04:59.894Z,0.70
2023-01-17T23:08:44.698Z,0.60
2023-01-17T23:12:26.734Z,0.50
2023-01-17T23:16:27.627Z,0.50
2023-01-17T23:20:11.145Z,0.40
2023-01-17T23:23:52.839Z,0.40
2023-01-17T23:28:02.067Z,0.40
2023-01-17T23:31:44.328Z,0.40
2023-01-17T23:35:29.220Z,0.50
2023-01-17T23:39:11.197Z,0.50
2023-01-17T23:43:11.556Z,0.60
2023-01-17T23:46:53.812Z,0.60
2023-01-17T23:50:47.217Z,0.60
2023-01-17T23:54:29.188Z,0.60
2023-01-17T23:58:12.973Z,0.60
